createdAt,value
2023-05-05T00:00:58.617Z,10.50
2023-05-05T00:03:26.960Z,11.45
2023-05-05T00:05:54.770Z,12.82
2023-05-05T00:08:22.291Z,11.82
2023-05-05T00:10:53.235Z,12.98
2023-05-05T00:13:21.444Z,13.88
2023-05-05T00:15:50.278Z,14.35
2023-05-05T00:18:18.275Z,10.70
2023-05-05T00:20:49.135Z,9.70
2023-05-05T00:23:16.925Z,10.55
2023-05-05T00:25:44.515Z,11.40
2023-05-05T00:28:11.636Z,9.32
2023-05-05T00:30:40.504Z,9.98
2023-05-05T00:33:07.941Z,14.40
2023-05-05T00:35:35.030Z,9.73
2023-05-05T00:38:03.001Z,15.07
2023-05-05T00:40:30.152Z,14.40
2023-05-05T00:42:57.392Z,16.52
2023-05-05T00:45:24.654Z,11.45
2023-05-05T00:47:54.973Z,8.02
2023-05-05T00:50:24.693Z,8.02
2023-05-05T00:52:54.541Z,11.63
2023-05-05T00:55:21.909Z,14.20
2023-05-05T00:57:50.000Z,12.25
2023-05-05T01:00:17.915Z,11.85
2023-05-05T01:02:45.260Z,9.50
2023-05-05T01:05:14.686Z,11.43
2023-05-05T01:07:48.528Z,12.88
2023-05-05T01:10:26.462Z,17.52
2023-05-05T01:13:16.653Z,15.75
2023-05-05T01:15:43.570Z,14.45
2023-05-05T01:18:24.397Z,15.60
2023-05-05T01:21:23.530Z,15.18
2023-05-05T01:24:26.456Z,17.45
2023-05-05T01:27:34.218Z,17.38
2023-05-05T01:30:28.748Z,15.18
2023-05-05T01:33:01.225Z,15.25
2023-05-05T01:35:33.246Z,12.18
2023-05-05T01:38:09.673Z,18.23
2023-05-05T01:40:53.093Z,13.60
2023-05-05T01:43:23.575Z,14.45
2023-05-05T01:45:52.766Z,13.00
2023-05-05T01:48:20.668Z,13.68
2023-05-05T01:50:50.576Z,14.88
2023-05-05T01:53:19.546Z,12.57
2023-05-05T01:55:47.617Z,14.43
2023-05-05T01:58:16.030Z,6.60
2023-05-05T02:00:44.278Z,9.25
2023-05-05T02:03:13.806Z,15.23
2023-05-05T02:05:41.454Z,10.10
2023-05-05T02:08:10.457Z,15.13
2023-05-05T02:10:41.002Z,10.98
2023-05-05T02:13:10.677Z,13.80
2023-05-05T02:15:39.452Z,14.88
2023-05-05T02:18:09.927Z,14.60
2023-05-05T02:20:39.416Z,16.88
2023-05-05T02:23:08.046Z,14.48
2023-05-05T02:25:42.072Z,12.32
2023-05-05T02:28:15.715Z,18.10
2023-05-05T02:30:43.846Z,12.73
2023-05-05T02:33:15.386Z,26.13
2023-05-05T02:35:44.238Z,16.98
2023-05-05T02:38:17.474Z,18.90
2023-05-05T02:40:48.364Z,22.95
2023-05-05T02:43:19.636Z,19.83
2023-05-05T02:45:46.890Z,19.20
2023-05-05T02:48:14.271Z,14.52
2023-05-05T02:50:41.627Z,18.40
2023-05-05T02:53:08.808Z,14.60
2023-05-05T02:55:50.687Z,24.63
2023-05-05T02:58:36.877Z,14.52
2023-05-05T03:01:25.101Z,16.15
2023-05-05T03:04:08.740Z,21.65
2023-05-05T03:06:41.194Z,13.95
2023-05-05T03:09:15.994Z,15.68
2023-05-05T03:12:04.032Z,16.70
2023-05-05T03:14:37.133Z,21.83
2023-05-05T03:17:05.746Z,22.35
2023-05-05T03:19:34.787Z,23.67
2023-05-05T03:22:04.152Z,18.13
2023-05-05T03:24:31.598Z,16.85
2023-05-05T03:26:58.736Z,25.50
2023-05-05T03:29:25.940Z,16.75
2023-05-05T03:31:52.913Z,14.77
2023-05-05T03:34:19.932Z,16.52
2023-05-05T03:36:47.381Z,18.15
2023-05-05T03:39:14.302Z,14.80
2023-05-05T03:41:41.213Z,19.02
2023-05-05T03:44:08.150Z,17.92
2023-05-05T03:46:35.162Z,25.80
2023-05-05T03:49:02.105Z,16.25
2023-05-05T03:51:29.034Z,22.38
2023-05-05T03:53:56.254Z,21.13
2023-05-05T03:56:23.171Z,20.90
2023-05-05T03:58:50.101Z,20.77
2023-05-05T04:01:17.034Z,23.25
2023-05-05T04:03:44.067Z,24.42
2023-05-05T04:06:11.791Z,22.30
2023-05-05T04:08:38.733Z,24.17
2023-05-05T04:11:05.709Z,25.48
2023-05-05T04:13:32.687Z,30.15
2023-05-05T04:16:00.113Z,29.77
2023-05-05T04:18:27.056Z,20.35
2023-05-05T04:20:54.115Z,25.70
2023-05-05T04:23:21.101Z,28.88
2023-05-05T04:25:48.093Z,34.88
2023-05-05T04:28:15.285Z,30.10
2023-05-05T04:30:42.223Z,32.50
2023-05-05T04:33:09.189Z,29.15
2023-05-05T04:35:36.236Z,38.00
2023-05-05T04:38:03.445Z,26.88
2023-05-05T04:40:30.557Z,36.13
2023-05-05T04:42:57.449Z,26.77
2023-05-05T04:45:24.725Z,36.40
2023-05-05T04:47:51.914Z,32.25
2023-05-05T04:50:18.933Z,34.70
2023-05-05T04:52:46.055Z,25.65
2023-05-05T04:55:13.054Z,36.80
2023-05-05T04:57:40.192Z,25.73
2023-05-05T05:00:08.464Z,31.95
2023-05-05T05:02:37.583Z,33.80
2023-05-05T05:05:04.966Z,35.53
2023-05-05T05:07:31.939Z,31.15
2023-05-05T05:09:59.012Z,23.10
2023-05-05T05:12:25.955Z,28.85
2023-05-05T05:14:52.934Z,30.33
2023-05-05T05:17:21.203Z,30.23
2023-05-05T05:19:48.127Z,22.02
2023-05-05T05:22:15.069Z,36.00
2023-05-05T05:24:41.963Z,36.33
2023-05-05T05:27:10.188Z,35.40
2023-05-05T05:29:37.401Z,40.42
2023-05-05T05:32:04.741Z,31.90
2023-05-05T05:34:31.733Z,29.92
2023-05-05T05:36:58.753Z,28.98
2023-05-05T05:39:25.720Z,35.05
2023-05-05T05:41:52.832Z,38.58
2023-05-05T05:44:19.916Z,36.92
2023-05-05T05:46:46.971Z,29.83
2023-05-05T05:49:14.117Z,31.63
2023-05-05T05:51:41.043Z,39.47
2023-05-05T05:54:08.094Z,33.50
2023-05-05T05:56:35.227Z,29.98
2023-05-05T05:59:04.248Z,34.95
2023-05-05T06:01:31.151Z,36.35
2023-05-05T06:03:58.243Z,40.63
2023-05-05T06:06:25.313Z,39.75
2023-05-05T06:08:52.295Z,30.55
2023-05-05T06:11:19.234Z,36.00
2023-05-05T06:13:46.281Z,35.08
2023-05-05T06:16:13.254Z,32.60
2023-05-05T06:18:40.204Z,32.83
2023-05-05T06:21:07.105Z,38.47
2023-05-05T06:23:34.100Z,43.53
2023-05-05T06:26:01.058Z,31.50
2023-05-05T06:28:28.083Z,35.17
2023-05-05T06:30:55.032Z,37.20
2023-05-05T06:33:22.026Z,37.13
2023-05-05T06:35:49.698Z,36.00
2023-05-05T06:38:16.619Z,36.75
2023-05-05T06:40:43.810Z,35.42
2023-05-05T06:43:11.445Z,32.53
2023-05-05T06:45:38.387Z,32.47
2023-05-05T06:48:05.802Z,43.67
2023-05-05T06:50:32.908Z,38.20
2023-05-05T06:53:00.256Z,37.83
2023-05-05T06:55:27.297Z,43.55
2023-05-05T06:57:54.355Z,38.55
2023-05-05T07:00:22.256Z,32.08
2023-05-05T07:02:49.307Z,32.78
2023-05-05T07:05:17.670Z,29.65
2023-05-05T07:07:56.146Z,26.52
2023-05-05T07:10:24.264Z,36.92
2023-05-05T07:12:52.080Z,28.45
2023-05-05T07:15:27.430Z,25.85
2023-05-05T07:17:56.648Z,29.75
2023-05-05T07:20:24.253Z,37.55
2023-05-05T07:22:51.356Z,33.65
2023-05-05T07:25:18.607Z,27.00
2023-05-05T07:27:47.096Z,30.98
2023-05-05T07:30:18.127Z,25.98
2023-05-05T07:32:45.988Z,32.38
2023-05-05T07:35:13.375Z,19.00
2023-05-05T07:37:40.486Z,30.60
2023-05-05T07:40:08.535Z,33.45
2023-05-05T07:42:36.085Z,25.52
2023-05-05T07:45:03.468Z,29.10
2023-05-05T07:47:30.989Z,30.83
2023-05-05T07:49:58.460Z,32.05
2023-05-05T07:52:43.371Z,24.70
2023-05-05T07:55:11.920Z,35.70
2023-05-05T07:57:39.402Z,29.73
2023-05-05T08:00:08.418Z,30.52
2023-05-05T08:02:35.631Z,23.65
2023-05-05T08:05:02.708Z,22.05
2023-05-05T08:07:29.617Z,24.30
2023-05-05T08:09:56.587Z,28.20
2023-05-05T08:12:23.731Z,23.75
2023-05-05T08:14:51.023Z,22.88
2023-05-05T08:17:18.022Z,27.40
2023-05-05T08:19:45.168Z,36.90
2023-05-05T08:22:12.265Z,26.20
2023-05-05T08:24:39.204Z,30.27
2023-05-05T08:27:06.238Z,26.58
2023-05-05T08:29:33.152Z,26.23
2023-05-05T08:32:00.286Z,30.05
2023-05-05T08:34:27.414Z,28.80
2023-05-05T08:36:55.492Z,24.77
2023-05-05T08:39:22.897Z,26.55
2023-05-05T08:41:50.428Z,25.80
2023-05-05T08:44:17.454Z,22.00
2023-05-05T08:46:44.819Z,25.83
2023-05-05T08:49:16.534Z,30.17
2023-05-05T08:51:45.503Z,34.83
2023-05-05T08:54:20.130Z,29.15
2023-05-05T08:56:49.628Z,24.15
2023-05-05T08:59:17.871Z,28.90
2023-05-05T09:01:45.388Z,31.63
2023-05-05T09:04:12.389Z,31.60
2023-05-05T09:06:39.608Z,31.02
2023-05-05T09:09:07.152Z,28.85
2023-05-05T09:11:35.516Z,38.75
2023-05-05T09:14:02.753Z,29.23
2023-05-05T09:16:29.773Z,28.23
2023-05-05T09:19:04.967Z,30.52
2023-05-05T09:21:32.899Z,24.95
2023-05-05T09:24:09.971Z,24.00
2023-05-05T09:26:45.196Z,32.17
2023-05-05T09:29:19.880Z,26.67
2023-05-05T09:32:05.913Z,31.90
2023-05-05T09:34:36.308Z,33.75
2023-05-05T09:37:04.819Z,26.20
2023-05-05T09:39:32.057Z,27.40
2023-05-05T09:41:59.017Z,33.25
2023-05-05T09:44:40.131Z,39.20
2023-05-05T09:47:18.152Z,33.08
2023-05-05T09:49:59.792Z,29.45
2023-05-05T09:52:26.865Z,29.33
2023-05-05T09:54:57.452Z,26.50
2023-05-05T09:57:29.470Z,25.83
2023-05-05T10:00:01.890Z,33.60
2023-05-05T10:02:38.403Z,38.08
2023-05-05T10:05:08.548Z,31.98
2023-05-05T10:07:37.512Z,33.05
2023-05-05T10:10:07.723Z,26.48
2023-05-05T10:12:37.017Z,32.63
2023-05-05T10:15:08.892Z,41.35
2023-05-05T10:18:02.423Z,40.38
2023-05-05T10:20:36.481Z,36.05
2023-05-05T10:23:07.928Z,27.08
2023-05-05T10:25:39.663Z,35.15
2023-05-05T10:28:09.778Z,30.33
2023-05-05T10:30:43.318Z,36.75
2023-05-05T10:33:31.630Z,31.80
2023-05-05T10:36:02.615Z,29.05
2023-05-05T10:38:31.174Z,29.52
2023-05-05T10:41:01.579Z,39.97
2023-05-05T10:43:30.693Z,30.83
2023-05-05T10:45:58.479Z,28.55
2023-05-05T10:48:32.241Z,38.92
2023-05-05T10:51:27.455Z,31.08
2023-05-05T10:54:27.064Z,31.42
2023-05-05T10:56:54.454Z,39.65
2023-05-05T10:59:36.936Z,35.28
2023-05-05T11:02:27.590Z,27.80
2023-05-05T11:05:23.659Z,32.88
2023-05-05T11:07:52.224Z,32.75
2023-05-05T11:10:21.265Z,48.33
2023-05-05T11:13:02.668Z,31.55
2023-05-05T11:15:29.993Z,35.45
2023-05-05T11:18:03.154Z,35.92
2023-05-05T11:20:40.997Z,36.80
2023-05-05T11:23:08.161Z,38.00
2023-05-05T11:25:42.013Z,29.45
2023-05-05T11:28:16.709Z,33.33
2023-05-05T11:30:59.057Z,35.50
2023-05-05T11:33:31.183Z,38.53
2023-05-05T11:36:05.800Z,38.90
2023-05-05T11:39:02.675Z,37.20
2023-05-05T11:41:32.758Z,38.25
2023-05-05T11:44:11.865Z,40.67
2023-05-05T11:47:04.698Z,41.42
2023-05-05T11:49:36.664Z,45.03
2023-05-05T11:52:14.945Z,50.05
2023-05-05T11:54:49.117Z,46.10
2023-05-05T11:57:23.624Z,39.80
2023-05-05T11:59:58.198Z,33.45
2023-05-05T12:02:27.910Z,37.67
2023-05-05T12:04:55.222Z,46.13
2023-05-05T12:07:31.042Z,38.83
2023-05-05T12:09:58.398Z,34.22
2023-05-05T12:12:39.747Z,38.40
2023-05-05T12:15:08.230Z,39.03
2023-05-05T12:17:40.672Z,41.95
2023-05-05T12:20:09.029Z,45.15
2023-05-05T12:22:36.349Z,39.58
2023-05-05T12:25:08.287Z,40.78
2023-05-05T12:27:35.801Z,39.88
2023-05-05T12:30:17.619Z,40.63
2023-05-05T12:32:46.030Z,47.65
2023-05-05T12:35:14.012Z,36.55
2023-05-05T12:37:42.657Z,45.72
2023-05-05T12:40:50.033Z,37.72
2023-05-05T12:43:28.852Z,39.78
2023-05-05T12:46:10.845Z,38.50
2023-05-05T12:48:40.120Z,38.33
2023-05-05T12:51:20.697Z,38.15
2023-05-05T12:53:48.877Z,38.55
2023-05-05T12:56:31.085Z,39.17
2023-05-05T12:58:58.273Z,33.78
2023-05-05T13:01:25.641Z,31.55
2023-05-05T13:04:05.540Z,38.70
2023-05-05T13:06:32.787Z,37.97
2023-05-05T13:09:00.283Z,30.65
2023-05-05T13:11:27.356Z,32.72
2023-05-05T13:13:54.401Z,26.33
2023-05-05T13:16:21.371Z,25.15
2023-05-05T13:18:49.968Z,19.20
2023-05-05T13:21:16.985Z,16.50
2023-05-05T13:23:44.711Z,12.90
2023-05-05T13:26:13.002Z,12.98
2023-05-05T13:28:40.862Z,7.10
2023-05-05T13:31:08.163Z,12.82
2023-05-05T13:33:36.214Z,10.10
2023-05-05T13:36:03.863Z,12.32
2023-05-05T13:38:33.277Z,7.40
2023-05-05T13:41:00.540Z,9.77
2023-05-05T13:43:27.707Z,6.88
2023-05-05T13:45:55.946Z,8.07
2023-05-05T13:48:27.561Z,8.52
2023-05-05T13:50:54.486Z,5.70
2023-05-05T13:53:21.851Z,4.43
2023-05-05T13:55:49.386Z,4.75
2023-05-05T13:58:16.537Z,7.18
2023-05-05T14:00:43.692Z,5.10
2023-05-05T14:03:10.951Z,10.77
2023-05-05T14:05:42.728Z,7.35
2023-05-05T14:08:11.105Z,7.38
2023-05-05T14:10:38.161Z,9.20
2023-05-05T14:13:05.187Z,7.60
2023-05-05T14:15:32.745Z,8.00
2023-05-05T14:18:00.184Z,7.45
2023-05-05T14:20:27.846Z,5.00
2023-05-05T14:22:54.963Z,6.03
2023-05-05T14:25:21.993Z,6.00
2023-05-05T14:27:49.727Z,7.53
2023-05-05T14:30:17.280Z,9.82
2023-05-05T14:32:44.414Z,11.02
2023-05-05T14:35:11.647Z,13.27
2023-05-05T14:37:38.642Z,16.13
2023-05-05T14:40:06.944Z,12.25
2023-05-05T14:42:34.000Z,17.80
2023-05-05T14:45:03.498Z,15.50
2023-05-05T14:47:30.774Z,17.08
2023-05-05T14:49:57.732Z,14.45
2023-05-05T14:52:24.863Z,15.27
2023-05-05T14:54:51.869Z,19.55
2023-05-05T14:57:19.066Z,23.85
2023-05-05T14:59:46.283Z,19.95
2023-05-05T15:02:13.201Z,19.80
2023-05-05T15:04:40.370Z,25.75
2023-05-05T15:07:07.302Z,20.23
2023-05-05T15:09:35.022Z,19.65
2023-05-05T15:12:02.389Z,18.38
2023-05-05T15:14:29.364Z,21.40
2023-05-05T15:16:56.534Z,26.13
2023-05-05T15:19:23.566Z,17.45
2023-05-05T15:21:53.395Z,20.38
2023-05-05T15:24:21.913Z,23.70
2023-05-05T15:26:49.106Z,20.55
2023-05-05T15:29:16.107Z,23.92
2023-05-05T15:31:43.111Z,26.10
2023-05-05T15:34:10.201Z,19.98
2023-05-05T15:36:37.129Z,21.58
2023-05-05T15:39:04.719Z,21.13
2023-05-05T15:41:34.314Z,18.63
2023-05-05T15:44:03.275Z,24.65
2023-05-05T15:46:33.563Z,26.60
2023-05-05T15:49:00.773Z,24.38
2023-05-05T15:51:28.400Z,21.67
2023-05-05T15:53:55.366Z,26.58
2023-05-05T15:56:22.985Z,29.60
2023-05-05T15:58:50.320Z,32.25
2023-05-05T16:01:17.302Z,31.10
2023-05-05T16:03:44.378Z,30.98
2023-05-05T16:06:12.569Z,30.73
2023-05-05T16:08:39.639Z,40.10
2023-05-05T16:11:06.782Z,37.45
2023-05-05T16:13:33.729Z,31.55
2023-05-05T16:16:01.049Z,33.35
2023-05-05T16:18:28.013Z,29.08
2023-05-05T16:20:54.947Z,32.78
2023-05-05T16:23:21.901Z,47.10
2023-05-05T16:25:48.936Z,37.80
2023-05-05T16:28:15.978Z,41.40
2023-05-05T16:30:43.831Z,43.25
2023-05-05T16:33:10.846Z,45.15
2023-05-05T16:35:38.078Z,40.63
2023-05-05T16:38:05.100Z,36.97
2023-05-05T16:40:32.219Z,42.35
2023-05-05T16:42:59.196Z,42.88
2023-05-05T16:45:26.180Z,47.13
2023-05-05T16:47:55.374Z,46.67
2023-05-05T16:50:22.945Z,41.20
2023-05-05T16:52:50.171Z,38.08
2023-05-05T16:55:17.245Z,54.70
2023-05-05T16:57:44.309Z,42.53
2023-05-05T17:00:12.557Z,38.55
2023-05-05T17:02:39.643Z,41.95
2023-05-05T17:05:07.276Z,46.75
2023-05-05T17:07:34.715Z,41.03
2023-05-05T17:10:01.980Z,40.58
2023-05-05T17:12:28.978Z,45.03
2023-05-05T17:14:57.624Z,49.85
2023-05-05T17:17:24.627Z,41.22
2023-05-05T17:19:51.855Z,45.45
2023-05-05T17:22:18.794Z,34.92
2023-05-05T17:24:45.958Z,46.92
2023-05-05T17:27:12.972Z,44.10
2023-05-05T17:29:41.338Z,39.28
2023-05-05T17:32:09.710Z,35.50
2023-05-05T17:34:36.778Z,35.30
2023-05-05T17:37:04.012Z,28.38
2023-05-05T17:39:31.162Z,34.78
2023-05-05T17:41:58.263Z,33.35
2023-05-05T17:44:25.474Z,38.55
2023-05-05T17:46:52.596Z,35.45
2023-05-05T17:49:21.696Z,29.80
2023-05-05T17:51:48.852Z,30.65
2023-05-05T17:54:16.477Z,29.80
2023-05-05T17:56:43.571Z,27.55
2023-05-05T17:59:10.586Z,33.97
2023-05-05T18:01:37.549Z,34.45
2023-05-05T18:04:04.883Z,29.88
2023-05-05T18:06:32.093Z,36.17
2023-05-05T18:08:59.115Z,44.70
2023-05-05T18:11:28.880Z,31.60
2023-05-05T18:13:56.307Z,31.65
2023-05-05T18:16:23.312Z,41.05
2023-05-05T18:18:50.505Z,37.38
2023-05-05T18:21:17.516Z,33.22
2023-05-05T18:23:44.703Z,31.85
2023-05-05T18:26:11.672Z,29.35
2023-05-05T18:28:39.554Z,36.28
2023-05-05T18:31:06.854Z,31.67
2023-05-05T18:33:33.841Z,29.15
2023-05-05T18:36:02.257Z,96.70
2023-05-05T18:38:29.412Z,197.13
2023-05-05T18:40:56.379Z,158.23
2023-05-05T18:43:23.351Z,61.33
2023-05-05T18:45:51.133Z,156.38
2023-05-05T18:48:18.304Z,162.20
2023-05-05T18:50:47.118Z,165.35
2023-05-05T18:53:15.058Z,246.68
2023-05-05T18:55:43.398Z,233.40
2023-05-05T18:58:10.435Z,96.25
2023-05-05T19:00:37.584Z,176.95
2023-05-05T19:03:04.625Z,74.32
2023-05-05T19:05:31.602Z,160.63
2023-05-05T19:07:58.673Z,30.27
2023-05-05T19:10:25.581Z,172.02
2023-05-05T19:12:52.700Z,54.70
2023-05-05T19:15:19.777Z,88.65
2023-05-05T19:17:47.680Z,57.60
2023-05-05T19:20:14.959Z,58.55
2023-05-05T19:22:42.293Z,189.85
2023-05-05T19:25:09.970Z,117.78
2023-05-05T19:27:37.226Z,330.77
2023-05-05T19:30:05.445Z,242.25
2023-05-05T19:32:32.581Z,144.90
2023-05-05T19:34:59.658Z,163.65
2023-05-05T19:37:27.139Z,133.85
2023-05-05T19:39:54.229Z,239.07
2023-05-05T19:42:21.260Z,69.30
2023-05-05T19:44:48.383Z,45.00
2023-05-05T19:47:15.342Z,87.13
2023-05-05T19:49:42.278Z,167.65
2023-05-05T19:52:09.474Z,108.40
2023-05-05T19:54:36.543Z,127.35
2023-05-05T19:57:03.662Z,143.07
2023-05-05T19:59:30.773Z,376.58
2023-05-05T20:01:57.834Z,44.72
2023-05-05T20:04:24.909Z,57.67
2023-05-05T20:06:51.956Z,48.03
2023-05-05T20:09:19.287Z,150.07
2023-05-05T20:11:46.189Z,84.35
2023-05-05T20:14:13.147Z,119.85
2023-05-05T20:16:40.124Z,135.20
2023-05-05T20:19:07.038Z,107.03
2023-05-05T20:21:35.152Z,44.70
2023-05-05T20:24:02.303Z,55.25
2023-05-05T20:26:29.394Z,83.93
2023-05-05T20:28:56.362Z,161.10
2023-05-05T20:31:23.333Z,138.18
2023-05-05T20:33:50.667Z,124.10
2023-05-05T20:36:18.224Z,76.55
2023-05-05T20:38:45.204Z,46.38
2023-05-05T20:41:12.643Z,52.42
2023-05-05T20:43:39.745Z,109.22
2023-05-05T20:46:12.208Z,62.92
2023-05-05T20:48:42.463Z,57.15
2023-05-05T20:51:10.050Z,50.05
2023-05-05T20:53:37.066Z,213.95
2023-05-05T20:56:05.740Z,245.80
2023-05-05T20:58:33.427Z,110.80
2023-05-05T21:01:00.612Z,117.68
2023-05-05T21:03:27.866Z,105.32
2023-05-05T21:05:54.851Z,97.93
2023-05-05T21:08:21.806Z,118.07
2023-05-05T21:10:48.973Z,217.45
2023-05-05T21:13:15.990Z,170.02
2023-05-05T21:15:42.930Z,233.57
2023-05-05T21:18:09.977Z,226.25
2023-05-05T21:20:37.120Z,80.80
2023-05-05T21:23:04.533Z,93.93
2023-05-05T21:25:31.536Z,150.43
2023-05-05T21:27:58.596Z,159.43
2023-05-05T21:30:25.820Z,126.57
2023-05-05T21:32:53.145Z,125.57
2023-05-05T21:35:20.164Z,24.35
2023-05-05T21:37:47.409Z,28.52
2023-05-05T21:40:16.286Z,105.88
2023-05-05T21:42:43.754Z,63.20
2023-05-05T21:45:11.833Z,169.98
2023-05-05T21:47:39.013Z,56.00
2023-05-05T21:50:06.689Z,325.10
2023-05-05T21:52:34.002Z,169.05
2023-05-05T21:55:01.226Z,155.90
2023-05-05T21:57:28.435Z,243.55
2023-05-05T21:59:55.547Z,189.80
2023-05-05T22:02:22.746Z,175.88
2023-05-05T22:04:51.586Z,183.23
2023-05-05T22:07:18.573Z,155.27
2023-05-05T22:09:46.161Z,138.98
2023-05-05T22:12:13.382Z,53.65
2023-05-05T22:14:40.832Z,66.13
2023-05-05T22:17:07.892Z,193.57
2023-05-05T22:19:35.026Z,31.13
2023-05-05T22:22:02.793Z,43.78
2023-05-05T22:24:30.463Z,107.03
2023-05-05T22:26:57.680Z,31.27
2023-05-05T22:29:25.263Z,76.70
2023-05-05T22:31:52.537Z,29.30
2023-05-05T22:34:20.798Z,40.53
2023-05-05T22:36:48.651Z,10.80
2023-05-05T22:39:15.806Z,22.02
2023-05-05T22:41:42.718Z,35.08
2023-05-05T22:44:10.040Z,135.85
2023-05-05T22:46:37.086Z,81.00
2023-05-05T22:49:04.148Z,11.70
2023-05-05T22:51:31.822Z,75.75
2023-05-05T22:53:59.100Z,91.28
2023-05-05T22:56:26.374Z,132.93
2023-05-05T22:58:53.337Z,63.60
2023-05-05T23:01:20.379Z,65.80
2023-05-05T23:03:47.736Z,23.83
2023-05-05T23:06:14.913Z,59.88
2023-05-05T23:08:42.231Z,94.22
2023-05-05T23:11:09.245Z,15.30
2023-05-05T23:13:36.420Z,34.28
2023-05-05T23:16:03.356Z,26.33
2023-05-05T23:18:30.260Z,27.17
2023-05-05T23:20:57.634Z,42.38
2023-05-05T23:23:24.818Z,57.50
2023-05-05T23:25:52.171Z,96.70
2023-05-05T23:28:20.305Z,10.68
2023-05-05T23:30:47.376Z,30.65
2023-05-05T23:33:14.352Z,158.68
2023-05-05T23:35:43.660Z,58.22
2023-05-05T23:38:10.849Z,23.98
2023-05-05T23:40:37.977Z,24.13
2023-05-05T23:43:05.341Z,18.08
2023-05-05T23:45:32.348Z,14.50
2023-05-05T23:47:59.785Z,18.20
2023-05-05T23:50:28.081Z,46.63
2023-05-05T23:52:55.198Z,89.80
2023-05-05T23:55:22.350Z,82.57
2023-05-05T23:57:51.652Z,8.38
